Time,TemperatureF,DewpointF,PressureIn,WindDirection,WindDirectionDegrees,WindSpeedMPH,WindSpeedGustMPH,Humidity,HourlyPrecipIn,Conditions,Clouds,dailyrainin,SoftwareType,DateUTC
2013-08-19 00:00:00,61.2,53.7,30.07,South,180,0.2,0.2,76,0.00,,,0.00,WUHU216HW,2013-08-19 05:00:00,
2013-08-19 00:05:00,61.2,53.7,30.07,South,180,0.2,0.2,76,0.00,,,0.00,WUHU216HW,2013-08-19 05:05:00,
2013-08-19 00:10:00,61.2,53.7,30.07,South,180,0.2,0.2,76,0.00,,,0.00,WUHU216HW,2013-08-19 05:10:00,
2013-08-19 00:30:00,60.3,53.5,30.06,South,180,0.0,0.0,78,0.00,,,0.00,WUHU216HW,2013-08-19 05:30:00,
2013-08-19 00:35:00,60.3,53.5,30.06,South,180,0.0,0.0,78,0.00,,,0.00,WUHU216HW,2013-08-19 05:35:00,
2013-08-19 00:40:00,60.3,53.5,30.06,South,180,0.0,0.0,78,0.00,,,0.00,WUHU216HW,2013-08-19 05:40:00,
2013-08-19 01:00:00,59.6,53.1,30.06,South,180,0.7,0.7,79,0.00,,,0.00,WUHU216HW,2013-08-19 06:00:00,
2013-08-19 01:05:00,59.8,53.3,30.06,South,180,0.4,0.7,79,0.00,,,0.00,WUHU216HW,2013-08-19 06:05:00,
2013-08-19 01:10:00,59.8,53.3,30.06,South,180,0.4,0.7,79,0.00,,,0.00,WUHU216HW,2013-08-19 06:10:00,
2013-08-19 01:30:00,59.0,52.9,30.06,South,180,0.0,0.0,80,0.00,,,0.00,WUHU216HW,2013-08-19 06:30:00,
2013-08-19 01:35:00,59.0,52.9,30.06,South,180,0.0,0.0,80,0.00,,,0.00,WUHU216HW,2013-08-19 06:35:00,
2013-08-19 01:40:00,59.0,52.9,30.06,South,180,0.0,0.0,80,0.00,,,0.00,WUHU216HW,2013-08-19 06:40:00,
2013-08-19 02:00:00,58.5,52.8,30.06,South,180,0.0,0.0,81,0.00,,,0.00,WUHU216HW,2013-08-19 07:00:00,
2013-08-19 02:05:00,58.5,52.8,30.06,South,180,0.0,0.0,81,0.00,,,0.00,WUHU216HW,2013-08-19 07:05:00,
2013-08-19 02:10:00,58.5,52.8,30.06,South,180,0.0,0.0,81,0.00,,,0.00,WUHU216HW,2013-08-19 07:10:00,
2013-08-19 02:30:00,58.0,52.5,30.05,South,180,0.0,0.0,82,0.00,,,0.00,WUHU216HW,2013-08-19 07:30:00,
2013-08-19 02:35:00,58.0,52.2,30.05,South,180,0.0,0.0,81,0.00,,,0.00,WUHU216HW,2013-08-19 07:35:00,
2013-08-19 02:40:00,58.0,52.2,30.05,South,180,0.0,0.0,81,0.00,,,0.00,WUHU216HW,2013-08-19 07:40:00,
2013-08-19 03:00:00,57.4,51.9,30.05,South,180,0.0,0.0,82,0.00,,,0.00,WUHU216HW,2013-08-19 08:00:00,
2013-08-19 03:05:00,57.4,51.9,30.05,South,180,0.0,0.0,82,0.00,,,0.00,WUHU216HW,2013-08-19 08:05:00,
2013-08-19 03:10:00,57.4,51.9,30.05,South,180,0.0,0.0,82,0.00,,,0.00,WUHU216HW,2013-08-19 08:10:00,
2013-08-19 03:30:00,56.9,51.8,30.05,South,180,0.0,0.0,83,0.00,,,0.00,WUHU216HW,2013-08-19 08:30:00,
2013-08-19 03:35:00,56.9,51.8,30.05,South,180,0.0,0.0,83,0.00,,,0.00,WUHU216HW,2013-08-19 08:35:00,
2013-08-19 03:40:00,56.9,51.8,30.05,South,180,0.0,0.0,83,0.00,,,0.00,WUHU216HW,2013-08-19 08:40:00,
2013-08-19 04:00:00,56.3,50.9,30.05,South,180,0.0,0.0,82,0.00,,,0.00,WUHU216HW,2013-08-19 09:00:00,
2013-08-19 04:05:00,56.3,50.9,30.05,South,180,0.0,0.0,82,0.00,,,0.00,WUHU216HW,2013-08-19 09:05:00,
2013-08-19 04:10:00,56.3,50.9,30.05,South,180,0.0,0.0,82,0.00,,,0.00,WUHU216HW,2013-08-19 09:10:00,
2013-08-19 04:30:00,56.0,50.9,30.04,South,180,0.0,0.0,83,0.00,,,0.00,WUHU216HW,2013-08-19 09:30:00,
2013-08-19 04:35:00,56.0,50.9,30.04,South,180,0.0,0.0,83,0.00,,,0.00,WUHU216HW,2013-08-19 09:35:00,
2013-08-19 04:40:00,56.0,50.9,30.04,South,180,0.0,0.0,83,0.00,,,0.00,WUHU216HW,2013-08-19 09:40:00,
2013-08-19 05:00:00,55.8,50.7,30.05,South,180,0.0,0.0,83,0.00,,,0.00,WUHU216HW,2013-08-19 10:00:00,
2013-08-19 05:05:00,55.8,50.7,30.05,South,180,0.0,0.0,83,0.00,,,0.00,WUHU216HW,2013-08-19 10:05:00,
2013-08-19 05:10:00,55.8,50.7,30.05,South,180,0.0,0.0,83,0.00,,,0.00,WUHU216HW,2013-08-19 10:10:00,
2013-08-19 05:30:00,55.3,50.5,30.05,South,180,0.0,0.0,84,0.00,,,0.00,WUHU216HW,2013-08-19 10:30:00,
2013-08-19 05:35:00,55.3,50.5,30.05,South,180,0.0,0.0,84,0.00,,,0.00,WUHU216HW,2013-08-19 10:35:00,
2013-08-19 05:40:00,55.3,50.5,30.05,South,180,0.0,0.0,84,0.00,,,0.00,WUHU216HW,2013-08-19 10:40:00,
2013-08-19 06:00:00,55.1,50.6,30.05,South,180,0.0,0.0,85,0.00,,,0.00,WUHU216HW,2013-08-19 11:00:00,
2013-08-19 06:05:00,55.1,50.6,30.05,South,180,0.0,0.0,85,0.00,,,0.00,WUHU216HW,2013-08-19 11:05:00,
2013-08-19 06:10:00,55.1,50.6,30.05,South,180,0.0,0.0,85,0.00,,,0.00,WUHU216HW,2013-08-19 11:10:00,
2013-08-19 06:30:00,55.3,51.1,30.05,South,180,0.0,0.0,86,0.00,,,0.00,WUHU216HW,2013-08-19 11:30:00,
2013-08-19 06:35:00,55.3,51.1,30.05,South,180,0.0,0.0,86,0.00,,,0.00,WUHU216HW,2013-08-19 11:35:00,
2013-08-19 06:40:00,55.3,51.1,30.05,South,180,0.0,0.0,86,0.00,,,0.00,WUHU216HW,2013-08-19 11:40:00,
2013-08-19 07:00:00,56.5,52.4,30.05,South,180,0.0,0.0,86,0.00,,,0.00,WUHU216HW,2013-08-19 12:00:00,
2013-08-19 07:05:00,56.5,52.4,30.05,South,180,0.0,0.0,86,0.00,,,0.00,WUHU216HW,2013-08-19 12:05:00,
2013-08-19 07:10:00,56.5,52.4,30.05,South,180,0.0,0.0,86,0.00,,,0.00,WUHU216HW,2013-08-19 12:10:00,
2013-08-19 07:30:00,58.9,55.0,30.05,ESE,113,0.0,0.0,87,0.00,,,0.00,WUHU216HW,2013-08-19 12:30:00,
2013-08-19 07:35:00,58.9,55.0,30.05,SSE,158,0.0,0.0,87,0.00,,,0.00,WUHU216HW,2013-08-19 12:35:00,
2013-08-19 07:40:00,58.9,55.0,30.05,SSE,158,0.0,0.0,87,0.00,,,0.00,WUHU216HW,2013-08-19 12:40:00,
2013-08-19 08:00:00,63.2,58.2,30.05,SW,225,1.1,1.1,84,0.00,,,0.00,WUHU216HW,2013-08-19 13:00:00,
2013-08-19 08:05:00,63.4,58.4,30.05,SSW,203,0.7,1.1,84,0.00,,,0.00,WUHU216HW,2013-08-19 13:05:00,
2013-08-19 08:10:00,63.4,58.4,30.05,SSW,203,0.7,1.1,84,0.00,,,0.00,WUHU216HW,2013-08-19 13:10:00,
2013-08-19 08:30:00,67.9,61.6,30.05,WSW,248,0.9,0.9,80,0.00,,,0.00,WUHU216HW,2013-08-19 13:30:00,
2013-08-19 08:35:00,67.9,61.6,30.05,WSW,248,0.2,0.9,80,0.00,,,0.00,WUHU216HW,2013-08-19 13:35:00,
2013-08-19 08:40:00,67.9,61.6,30.05,WSW,248,0.2,0.9,80,0.00,,,0.00,WUHU216HW,2013-08-19 13:40:00,
2013-08-19 09:00:00,71.5,63.1,30.05,SSW,203,1.3,1.3,75,0.00,,,0.00,WUHU216HW,2013-08-19 14:00:00,
2013-08-19 09:05:00,71.5,63.1,30.05,SW,225,0.9,1.3,75,0.00,,,0.00,WUHU216HW,2013-08-19 14:05:00,
2013-08-19 09:10:00,71.5,63.1,30.05,SW,225,0.9,1.3,75,0.00,,,0.00,WUHU216HW,2013-08-19 14:10:00,
2013-08-19 09:30:00,75.4,65.0,30.04,South,180,1.8,1.8,70,0.00,,,0.00,WUHU216HW,2013-08-19 14:30:00,
2013-08-19 09:35:00,75.6,65.2,30.04,South,180,1.6,1.8,70,0.00,,,0.00,WUHU216HW,2013-08-19 14:35:00,
2013-08-19 09:40:00,75.6,65.2,30.04,South,180,1.6,1.6,70,0.00,,,0.00,WUHU216HW,2013-08-19 14:40:00,
2013-08-19 10:00:00,78.3,64.7,30.05,SSE,158,3.4,3.4,63,0.00,,,0.00,WUHU216HW,2013-08-19 15:00:00,
2013-08-19 10:05:00,78.3,64.7,30.05,SSE,158,3.4,3.4,63,0.00,,,0.00,WUHU216HW,2013-08-19 15:05:00,
2013-08-19 10:10:00,78.3,64.7,30.05,SSE,158,3.4,3.4,63,0.00,,,0.00,WUHU216HW,2013-08-19 15:10:00,
2013-08-19 10:30:00,80.1,64.5,30.05,SW,225,1.6,1.6,59,0.00,,,0.00,WUHU216HW,2013-08-19 15:30:00,
2013-08-19 10:35:00,80.1,64.5,30.05,SW,225,1.1,1.6,59,0.00,,,0.00,WUHU216HW,2013-08-19 15:35:00,
2013-08-19 10:40:00,80.1,64.5,30.05,SW,225,1.1,1.3,59,0.00,,,0.00,WUHU216HW,2013-08-19 15:40:00,
2013-08-19 11:00:00,82.8,63.8,30.05,NNW,338,1.8,1.8,53,0.00,,,0.00,WUHU216HW,2013-08-19 16:00:00,
2013-08-19 11:05:00,82.8,63.4,30.05,NNW,338,1.8,1.8,52,0.00,,,0.00,WUHU216HW,2013-08-19 16:05:00,
2013-08-19 11:10:00,82.8,63.4,30.05,NNW,338,1.8,1.8,52,0.00,,,0.00,WUHU216HW,2013-08-19 16:10:00,
2013-08-19 11:30:00,83.2,65.3,30.04,South,180,1.1,1.1,55,0.00,,,0.00,WUHU216HW,2013-08-19 16:30:00,
2013-08-19 11:35:00,83.3,64.9,30.04,South,180,1.8,1.8,54,0.00,,,0.00,WUHU216HW,2013-08-19 16:35:00,
2013-08-19 11:40:00,83.3,64.9,30.04,South,180,1.8,1.8,54,0.00,,,0.00,WUHU216HW,2013-08-19 16:40:00,
2013-08-19 12:00:00,85.0,64.9,30.03,SSW,203,2.5,2.5,51,0.00,,,0.00,WUHU216HW,2013-08-19 17:00:00,
2013-08-19 12:05:00,85.1,65.1,30.03,SSW,203,2.5,2.5,51,0.00,,,0.00,WUHU216HW,2013-08-19 17:05:00,
2013-08-19 12:10:00,85.1,65.1,30.03,SSW,203,2.5,2.5,51,0.00,,,0.00,WUHU216HW,2013-08-19 17:10:00,
2013-08-19 12:30:00,85.7,64.4,30.03,WNW,293,1.1,1.1,49,0.00,,,0.00,WUHU216HW,2013-08-19 17:30:00,
2013-08-19 12:35:00,85.9,64.5,30.03,SSW,203,1.3,1.3,49,0.00,,,0.00,WUHU216HW,2013-08-19 17:35:00,
2013-08-19 12:40:00,85.9,64.5,30.03,SSW,203,1.3,1.3,49,0.00,,,0.00,WUHU216HW,2013-08-19 17:40:00,
2013-08-19 13:00:00,85.7,64.4,30.02,WSW,248,1.6,1.6,49,0.00,,,0.00,WUHU216HW,2013-08-19 18:00:00,
2013-08-19 13:05:00,85.7,64.4,30.02,SSE,158,3.4,3.4,49,0.00,,,0.00,WUHU216HW,2013-08-19 18:05:00,
2013-08-19 13:10:00,85.7,64.4,30.02,SSE,158,3.4,3.4,49,0.00,,,0.00,WUHU216HW,2013-08-19 18:10:00,
2013-08-19 13:30:00,84.2,63.1,30.02,SE,135,2.7,2.7,49,0.00,,,0.00,WUHU216HW,2013-08-19 18:30:00,
2013-08-19 13:35:00,84.2,63.1,30.02,SSE,158,2.2,2.7,49,0.00,,,0.00,WUHU216HW,2013-08-19 18:35:00,
2013-08-19 13:40:00,84.2,63.1,30.02,SSE,158,2.2,2.2,49,0.00,,,0.00,WUHU216HW,2013-08-19 18:40:00,
2013-08-19 14:00:00,85.3,64.7,30.02,WSW,248,1.3,1.3,50,0.00,,,0.00,WUHU216HW,2013-08-19 19:00:00,
2013-08-19 14:05:00,85.3,64.7,30.02,SSW,203,1.1,1.3,50,0.00,,,0.00,WUHU216HW,2013-08-19 19:05:00,
2013-08-19 14:10:00,85.3,64.7,30.02,SSW,203,1.1,1.1,50,0.00,,,0.00,WUHU216HW,2013-08-19 19:10:00,
2013-08-19 14:30:00,86.4,63.2,30.01,West,270,3.6,3.6,46,0.00,,,0.00,WUHU216HW,2013-08-19 19:30:00,
2013-08-19 14:35:00,86.4,63.2,30.01,SW,225,2.9,3.6,46,0.00,,,0.00,WUHU216HW,2013-08-19 19:35:00,
2013-08-19 14:40:00,86.4,63.2,30.01,SW,225,2.9,3.6,46,0.00,,,0.00,WUHU216HW,2013-08-19 19:40:00,
2013-08-19 15:00:00,85.5,64.3,30.00,South,180,2.2,2.2,49,0.00,,,0.00,WUHU216HW,2013-08-19 20:00:00,
2013-08-19 15:05:00,85.7,64.4,30.00,SSE,158,2.9,2.9,49,0.00,,,0.00,WUHU216HW,2013-08-19 20:05:00,
2013-08-19 15:10:00,85.7,64.4,30.00,SSE,158,2.9,2.9,49,0.00,,,0.00,WUHU216HW,2013-08-19 20:10:00,
2013-08-19 15:30:00,86.0,63.5,30.00,West,270,1.6,1.6,47,0.00,,,0.00,WUHU216HW,2013-08-19 20:30:00,
2013-08-19 15:35:00,86.0,63.5,30.00,SE,135,1.8,1.8,47,0.00,,,0.00,WUHU216HW,2013-08-19 20:35:00,
2013-08-19 15:40:00,86.0,63.5,30.00,SE,135,1.8,1.8,47,0.00,,,0.00,WUHU216HW,2013-08-19 20:40:00,
2013-08-19 16:00:00,85.7,62.5,30.00,WNW,293,2.7,2.7,46,0.00,,,0.00,WUHU216HW,2013-08-19 21:00:00,
2013-08-19 16:05:00,85.5,62.4,30.00,West,270,2.5,2.7,46,0.00,,,0.00,WUHU216HW,2013-08-19 21:05:00,
2013-08-19 16:10:00,85.5,62.4,30.00,West,270,2.5,2.5,46,0.00,,,0.00,WUHU216HW,2013-08-19 21:10:00,
2013-08-19 16:30:00,86.0,62.2,30.00,West,270,1.3,1.3,45,0.00,,,0.00,WUHU216HW,2013-08-19 21:30:00,
2013-08-19 16:35:00,86.0,62.2,30.00,NNW,338,2.5,2.5,45,0.00,,,0.00,WUHU216HW,2013-08-19 21:35:00,
2013-08-19 16:40:00,86.0,62.2,30.00,NNW,338,2.5,2.5,45,0.00,,,0.00,WUHU216HW,2013-08-19 21:40:00,
2013-08-19 17:00:00,86.9,63.0,29.99,South,180,1.3,1.3,45,0.00,,,0.00,WUHU216HW,2013-08-19 22:00:00,
2013-08-19 17:05:00,86.9,63.0,29.99,South,180,3.4,3.4,45,0.00,,,0.00,WUHU216HW,2013-08-19 22:05:00,
2013-08-19 17:10:00,86.9,63.0,29.99,South,180,3.4,3.4,45,0.00,,,0.00,WUHU216HW,2013-08-19 22:10:00,
2013-08-19 17:30:00,83.9,61.5,30.00,South,180,2.2,2.2,47,0.00,,,0.00,WUHU216HW,2013-08-19 22:30:00,
2013-08-19 17:35:00,83.9,61.5,30.00,South,180,2.2,2.2,47,0.00,,,0.00,WUHU216HW,2013-08-19 22:35:00,
2013-08-19 17:40:00,83.9,61.5,30.00,South,180,2.2,2.2,47,0.00,,,0.00,WUHU216HW,2013-08-19 22:40:00,
2013-08-19 18:00:00,81.9,60.2,30.00,NNW,338,1.1,1.1,48,0.00,,,0.00,WUHU216HW,2013-08-19 23:00:00,
2013-08-19 18:05:00,81.9,60.2,30.00,SSE,158,1.6,1.6,48,0.00,,,0.00,WUHU216HW,2013-08-19 23:05:00,
2013-08-19 18:10:00,81.9,60.2,30.00,SSE,158,1.6,1.6,48,0.00,,,0.00,WUHU216HW,2013-08-19 23:10:00,
2013-08-19 18:30:00,80.5,60.7,29.99,South,180,0.4,0.4,51,0.00,,,0.00,WUHU216HW,2013-08-19 23:30:00,
2013-08-19 18:35:00,80.5,60.7,29.99,South,180,0.0,0.4,51,0.00,,,0.00,WUHU216HW,2013-08-19 23:35:00,
2013-08-19 18:40:00,80.5,60.7,29.99,South,180,0.0,0.4,51,0.00,,,0.00,WUHU216HW,2013-08-19 23:40:00,
2013-08-19 19:00:00,78.3,60.3,29.99,SSE,158,0.0,0.0,54,0.00,,,0.00,WUHU216HW,2013-08-20 00:00:00,
2013-08-19 19:05:00,78.1,60.1,29.99,SSE,158,0.0,0.0,54,0.00,,,0.00,WUHU216HW,2013-08-20 00:05:00,
2013-08-19 19:10:00,78.1,60.1,29.99,SSE,158,0.0,0.0,54,0.00,,,0.00,WUHU216HW,2013-08-20 00:10:00,
2013-08-19 19:30:00,75.2,59.9,29.99,SSE,158,0.0,0.0,59,0.00,,,0.00,WUHU216HW,2013-08-20 00:30:00,
2013-08-19 19:35:00,75.2,59.9,29.99,SSE,158,0.0,0.0,59,0.00,,,0.00,WUHU216HW,2013-08-20 00:35:00,
2013-08-19 19:40:00,75.2,59.9,29.99,SSE,158,0.0,0.0,59,0.00,,,0.00,WUHU216HW,2013-08-20 00:40:00,
2013-08-19 20:00:00,72.4,59.1,29.99,SSE,158,0.0,0.0,63,0.00,,,0.00,WUHU216HW,2013-08-20 01:00:00,
2013-08-19 20:05:00,72.4,59.1,29.99,SSE,158,0.0,0.0,63,0.00,,,0.00,WUHU216HW,2013-08-20 01:05:00,
2013-08-19 20:10:00,72.4,59.1,29.99,SSE,158,0.0,0.0,63,0.00,,,0.00,WUHU216HW,2013-08-20 01:10:00,
2013-08-19 20:30:00,69.7,57.8,29.99,South,180,0.0,0.0,66,0.00,,,0.00,WUHU216HW,2013-08-20 01:30:00,
2013-08-19 20:35:00,69.7,57.8,29.99,South,180,0.0,0.0,66,0.00,,,0.00,WUHU216HW,2013-08-20 01:35:00,
2013-08-19 20:40:00,69.7,57.8,29.99,South,180,0.0,0.0,66,0.00,,,0.00,WUHU216HW,2013-08-20 01:40:00,
2013-08-19 21:00:00,68.0,57.5,30.00,South,180,0.0,0.0,69,0.00,,,0.00,WUHU216HW,2013-08-20 02:00:00,
2013-08-19 21:05:00,68.0,58.0,30.00,South,180,0.0,0.0,70,0.00,,,0.00,WUHU216HW,2013-08-20 02:05:00,
2013-08-19 21:10:00,68.0,58.0,30.00,South,180,0.0,0.0,70,0.00,,,0.00,WUHU216HW,2013-08-20 02:10:00,
2013-08-19 21:30:00,66.6,57.2,30.00,South,180,0.0,0.0,72,0.00,,,0.00,WUHU216HW,2013-08-20 02:30:00,
2013-08-19 21:35:00,66.6,57.2,30.00,South,180,0.0,0.0,72,0.00,,,0.00,WUHU216HW,2013-08-20 02:35:00,
2013-08-19 21:40:00,66.6,57.2,30.00,South,180,0.0,0.0,72,0.00,,,0.00,WUHU216HW,2013-08-20 02:40:00,
2013-08-19 22:00:00,65.9,57.3,30.00,SSW,203,0.0,0.0,74,0.00,,,0.00,WUHU216HW,2013-08-20 03:00:00,
2013-08-19 22:05:00,65.9,57.3,30.00,SSW,203,0.0,0.0,74,0.00,,,0.00,WUHU216HW,2013-08-20 03:05:00,
2013-08-19 22:10:00,65.9,57.3,30.00,SSW,203,0.0,0.0,74,0.00,,,0.00,WUHU216HW,2013-08-20 03:10:00,
2013-08-19 22:30:00,65.3,57.6,30.00,SSW,203,0.0,0.0,76,0.00,,,0.00,WUHU216HW,2013-08-20 03:30:00,
2013-08-19 22:35:00,65.3,57.6,30.00,SSW,203,0.0,0.0,76,0.00,,,0.00,WUHU216HW,2013-08-20 03:35:00,
2013-08-19 22:40:00,65.3,57.6,30.00,SSW,203,0.0,0.0,76,0.00,,,0.00,WUHU216HW,2013-08-20 03:40:00,
2013-08-19 23:00:00,64.6,57.6,29.99,South,180,0.0,0.0,78,0.00,,,0.00,WUHU216HW,2013-08-20 04:00:00,
2013-08-19 23:01:00,64.4,57.4,29.99,South,180,0.0,0.0,78,0.00,,,0.00,WUHU216HW,2013-08-20 04:01:00,
2013-08-19 23:02:00,64.4,57.4,29.99,South,180,0.0,0.0,78,0.00,,,0.00,WUHU216HW,2013-08-20 04:02:00,
2013-08-19 23:07:00,64.4,57.4,29.99,South,180,0.0,0.0,78,0.00,,,0.00,WUHU216HW,2013-08-20 04:07:00,
2013-08-19 23:30:00,63.9,57.2,29.99,South,180,0.0,0.0,79,0.00,,,0.00,WUHU216HW,2013-08-20 04:30:00,
2013-08-19 23:35:00,63.9,57.2,29.99,South,180,0.0,0.0,79,0.00,,,0.00,WUHU216HW,2013-08-20 04:35:00,
2013-08-19 23:40:00,63.9,57.2,29.99,South,180,0.0,0.0,79,0.00,,,0.00,WUHU216HW,2013-08-20 04:40:00,